WetterOnline ( https://www.wetteronline.at )

Wetter aktuell Straubing

Aktuelles Wetter: Straubing (360m)

6-stündlich | Neueste Meldungen
Ortszeit Temperatur Wetter
Di, 17.09. 14:00 17.0° C bewölkt
Di, 17.09. 8:00 15.3° C bedeckt
Di, 17.09. 2:00 18.0° C bedeckt
Mo, 16.09. 20:00 21.2° C bedeckt
Mo, 16.09. 14:00 23.3° C wolkig
Mo, 16.09. 8:00 11.3° C fast wolkenlos
Mo, 16.09. 2:00 15.1° C wolkig
So, 15.09. 20:00 18.6° C leicht bewölkt
Ortszeit Temperatur Wetter
Di, 17.09. 16:10 17.7° C wolkig
Di, 17.09. 16:00 18.3° C wolkig
Di, 17.09. 15:50 18.3° C wolkig
Di, 17.09. 15:40 18.1° C wolkig
Di, 17.09. 15:30 18.3° C bewölkt
Di, 17.09. 15:20 18.3° C bewölkt
Di, 17.09. 15:00 17.3° C bedeckt
Di, 17.09. 14:30 16.8° C bedeckt
Di, 17.09. 14:00 17.0° C bewölkt
Di, 17.09. 13:30 16.4° C bewölkt
Di, 17.09. 13:00 15.2° C bedeckt
Ortszeit Relative Feuchte Sichtweite
Di, 17.09. 14:00 72% 55 km
Di, 17.09. 8:00 86% 28 km
Di, 17.09. 2:00 62% 60 km
Mo, 16.09. 20:00 61% 65 km
Mo, 16.09. 14:00 53% >70 km
Mo, 16.09. 8:00 92% 22 km
Mo, 16.09. 2:00 90% 30 km
So, 15.09. 20:00 73% 40 km
Ortszeit Relative Feuchte Sichtweite
Di, 17.09. 16:10 66% -
Di, 17.09. 16:00 63% 50 km
Di, 17.09. 15:50 63% -
Di, 17.09. 15:40 64% -
Di, 17.09. 15:30 66% >70 km
Di, 17.09. 15:20 66% -
Di, 17.09. 15:00 72% >70 km
Di, 17.09. 14:30 74% >70 km
Di, 17.09. 14:00 72% 55 km
Di, 17.09. 13:30 76% >70 km
Di, 17.09. 13:00 82% 65 km
Ortszeit Niederschlagsmenge Niederschlagsart
Di, 17.09. 14:00 0.1 l/m2 in 6 Std. Regen
Di, 17.09. 8:00 0.3 l/m2 in 12 Std. Regen
Di, 17.09. 2:00 0.0 l/m2 in 6 Std. -
Mo, 16.09. 20:00 0.0 l/m2 in 12 Std. -
Mo, 16.09. 14:00 0.0 l/m2 in 6 Std. -
Mo, 16.09. 8:00 0.0 l/m2 in 12 Std. -
Mo, 16.09. 2:00 0.0 l/m2 in 6 Std. -
So, 15.09. 20:00 0.0 l/m2 in 12 Std. -
Ortszeit Niederschlagsmenge Niederschlagsart
Di, 17.09. 16:10 keine Meldung -
Di, 17.09. 16:00 0.0 l/m2 in 1 Std. -
Di, 17.09. 15:50 keine Meldung -
Di, 17.09. 15:40 keine Meldung -
Di, 17.09. 15:30 0.0 l/m2 in 1 Std. -
Di, 17.09. 15:20 keine Meldung -
Di, 17.09. 15:00 0.0 l/m2 in 1 Std. -
Di, 17.09. 14:30 0.0 l/m2 in 1 Std. -
Di, 17.09. 14:00 0.0 l/m2 in 1 Std. Regen
Di, 17.09. 13:30 0.0 l/m2 in 1 Std. -
Di, 17.09. 13:00 0.0 l/m2 in 1 Std. -
Ortszeit Stärke Spitze Richtung
km/h Bft. km/h Grad Sektor
Di, 17.09. 14:00 14 3 25 280° W
Di, 17.09. 8:00 7 2 14 280° W
Di, 17.09. 2:00 7 2 14 270° W
Mo, 16.09. 20:00 4 1 25 310° NW
Mo, 16.09. 14:00 7 2 14 300° NW
Mo, 16.09. 8:00 0 0 11 - -
Mo, 16.09. 2:00 7 2 11 330° NW
So, 15.09. 20:00 6 1 19 190° S
Ortszeit Stärke Spitze Richtung
km/h Bft. km/h Grad Sektor
Di, 17.09. 16:10 25 4 - 270° W
Di, 17.09. 16:00 18 3 36 260° W
Di, 17.09. 15:50 18 3 - 260° W
Di, 17.09. 15:40 20 4 - 270° W
Di, 17.09. 15:30 20 4 33 270° W
Di, 17.09. 15:20 20 4 - 270° W
Di, 17.09. 15:00 13 3 26 270° W
Di, 17.09. 14:30 14 3 25 270° W
Di, 17.09. 14:00 14 3 22 280° W
Di, 17.09. 13:30 9 2 19 280° W
Di, 17.09. 13:00 7 2 17 280° W
Ortszeit Untergrenze Bedeckung Gattung
total tief tief mittel hoch
Di, 17.09. 14:00 540 m 7/8 7/8 - - -
Di, 17.09. 8:00 1500 m 8/8 8/8 - - -
Di, 17.09. 2:00 3300 m 8/8 8/8 - - -
Mo, 16.09. 20:00 3600 m 8/8 8/8 - - -
Mo, 16.09. 14:00 1500 m 8/8 1/8 - - -
Mo, 16.09. 8:00 9000 m 1/8 0/8 - - -
Mo, 16.09. 2:00 1500 m 8/8 3/8 - - -
So, 15.09. 20:00 12000 m 3/8 0/8 - - -
Ortszeit Bedeckungsgrad in Achtel und Wolkenuntergrenze
Di, 17.09. 16:10 2(870m) 6(1080m) 6(9000m)
Di, 17.09. 16:00 3(840m) 4(1080m) 6(9000m)
Di, 17.09. 15:50 3(840m) 4(1080m) 6(9000m)
Di, 17.09. 15:40 3(840m) 5(1200m) 5(9000m)
Di, 17.09. 15:30 2(840m) 3(1020m) 7(1290m)
Di, 17.09. 15:20 2(840m) 3(1020m) 7(1290m)
Di, 17.09. 15:00 3(810m) 8(1230m)
Di, 17.09. 14:30 3(600m) 7(840m) 8(1140m)
Di, 17.09. 14:00 1(540m) 7(750m) 7(870m)
Di, 17.09. 13:30 2(450m) 7(750m)
Di, 17.09. 13:00 7(390m) 7(510m) 8(660m)
Ortszeit Luftdruck NN (hPa) Tendenz (hPa in 3 Std.)
Di, 17.09. 14:00 1018 - 0,6
Di, 17.09. 8:00 1017 + 0,2
Di, 17.09. 2:00 1017 - 0,1
Mo, 16.09. 20:00 1016 - 0,3
Mo, 16.09. 14:00 1018 - 1,6
Mo, 16.09. 8:00 1021 - 0,1
Mo, 16.09. 2:00 1021 - 0,1
So, 15.09. 20:00 1021 - 0,8
Ortszeit Luftdruck NN (hPa) Tendenz (hPa in 3 Std.)
Di, 17.09. 16:10 1017 keine Meldung
Di, 17.09. 16:00 1017 - 1,4
Di, 17.09. 15:50 1017 keine Meldung
Di, 17.09. 15:40 1017 keine Meldung
Di, 17.09. 15:30 1017 - 1,3
Di, 17.09. 15:20 1017 keine Meldung
Di, 17.09. 15:00 1017 - 1,1
Di, 17.09. 14:30 1018 - 0,9
Di, 17.09. 14:00 1018 - 0,6
Di, 17.09. 13:30 1018 - 0,1
Di, 17.09. 13:00 1018 + 0,3
Ortszeit Schneehöhe (cm)
Di, 17.09. 14:00 -
Di, 17.09. 8:00 -
Di, 17.09. 2:00 -
Mo, 16.09. 20:00 -
Mo, 16.09. 14:00 -
Mo, 16.09. 8:00 -
Mo, 16.09. 2:00 -
So, 15.09. 20:00 -
Ortszeit Schneehöhe (cm)
Di, 17.09. 16:10 -
Di, 17.09. 16:00 -
Di, 17.09. 15:50 -
Di, 17.09. 15:40 -
Di, 17.09. 15:30 -
Di, 17.09. 15:20 -
Di, 17.09. 15:00 -
Di, 17.09. 14:30 -
Di, 17.09. 14:00 -
Di, 17.09. 13:30 -
Di, 17.09. 13:00 -
Link zu dieser Seite / Seite empfehlen

Das Wetter in ...